»·PEaware :: C172G99 L88-KSBP

C172G99 :: L88-KSBP

FLIGHT INFORMATION

Flight Status: Arrived
Operator: Privately registered:
Canada
More flights under this callsign
Pilot: Anonymous 22677 (22677)
Aircraft: CESSNA 172 SKYHAWK
(C172)
More flights by this aircraft type
Origin: L88 New Cuyama
United States
Destination: KSBP San Luis Co Regl
United States
More flights between these airports :: More routes between these airports
Route: L52 RZS L88
File this flight plan on PilotEdge
Remarks:
Altitude:
(Current/Filed)
7,000ft
Speed:
(Current/Filed)
115kts
Departed: 24-Dec-18 11:42 AM
Arrived: 24-Dec-18 12:17 PM
Distance/Time
Traveled:
50nm/0:34
Distance/Time
To Go:
Arrived

Flight Plot

Page will automatically refresh every two minutes.

Flight plan parsing failed; only flown route is shown


Map Options




Map Legend


Flown Route
Filed Route
Departure Airport
Arrival Airport
Navaid (VOR, NDB)
Fix

Horizontal Profiles

Position Reports

Time Latitude Longitude Heading Altitude Ground
Speed
24-Dec-18 11:20 34.942591 -119.689748 288 2158ft 0kts
24-Dec-18 11:21 34.942591 -119.689748 288 2158ft 0kts
24-Dec-18 11:22 34.942591 -119.689748 288 2158ft 0kts
24-Dec-18 11:23 34.942591 -119.689748 288 2158ft 0kts
24-Dec-18 11:24 34.942591 -119.689748 288 2158ft 0kts
24-Dec-18 11:25 34.942591 -119.689748 288 2158ft 0kts
24-Dec-18 11:26 34.942591 -119.689748 288 2158ft 0kts
24-Dec-18 11:27 34.942591 -119.689748 288 2158ft 0kts
24-Dec-18 11:28 34.942591 -119.689748 288 2158ft 0kts
24-Dec-18 11:29 34.942591 -119.689748 288 2158ft 0kts
24-Dec-18 11:30 34.942591 -119.689748 288 2158ft 0kts
24-Dec-18 11:31 34.942591 -119.689748 288 2158ft 0kts
24-Dec-18 11:32 34.942591 -119.689748 288 2158ft 0kts
24-Dec-18 11:33 34.942591 -119.689748 288 2158ft 0kts
24-Dec-18 11:34 34.942591 -119.689748 288 2158ft 0kts
24-Dec-18 11:35 34.942591 -119.689748 288 2158ft 0kts
24-Dec-18 11:36 34.942591 -119.689748 288 2158ft 0kts
24-Dec-18 11:37 34.942591 -119.689748 288 2158ft 0kts
24-Dec-18 11:38 34.942591 -119.689748 288 2158ft 0kts
24-Dec-18 11:39 34.942591 -119.689748 288 2158ft 0kts
24-Dec-18 11:40 34.942326 -119.691232 139 2156ft 8kts
24-Dec-18 11:41 34.934971 -119.673872 130 2697ft 70kts
24-Dec-18 11:42 34.923874 -119.684076 301 3450ft 73kts
24-Dec-18 11:43 34.935082 -119.703670 305 4173ft 73kts
24-Dec-18 11:44 34.944895 -119.729261 293 4858ft 94kts
24-Dec-18 11:45 34.951960 -119.757145 288 5475ft 99kts
24-Dec-18 11:46 34.958359 -119.788892 287 6153ft 97kts
24-Dec-18 11:47 34.964054 -119.820123 287 6835ft 93kts
24-Dec-18 11:48 34.970036 -119.853574 286 6993ft 119kts
24-Dec-18 11:49 34.976462 -119.890521 285 6991ft 123kts
24-Dec-18 11:50 34.981582 -119.920196 285 6991ft 124kts
24-Dec-18 11:51 34.987856 -119.956652 285 6991ft 124kts
24-Dec-18 11:52 34.994129 -119.993187 285 6991ft 124kts
24-Dec-18 11:53 35.000258 -120.028921 285 6991ft 123kts
24-Dec-18 11:54 35.006854 -120.065392 285 6993ft 123kts
24-Dec-18 11:55 35.013422 -120.102719 284 6757ft 133kts
24-Dec-18 11:56 35.020600 -120.144901 283 6281ft 135kts
24-Dec-18 11:57 35.027947 -120.188080 282 5796ft 136kts
24-Dec-18 11:58 35.035364 -120.231859 284 5299ft 134kts
24-Dec-18 11:59 35.043037 -120.277074 284 4783ft 135kts
24-Dec-18 12:00 35.050700 -120.322404 284 4267ft 134kts
24-Dec-18 12:01 35.058015 -120.365635 284 3742ft 125kts
24-Dec-18 12:02 35.065262 -120.408694 284 3216ft 126kts
24-Dec-18 12:03 35.071956 -120.448725 284 3029ft 101kts
24-Dec-18 12:04 35.077161 -120.479791 284 3034ft 91kts
24-Dec-18 12:05 35.080909 -120.502181 284 3033ft 91kts
24-Dec-18 12:06 35.085371 -120.528894 284 3032ft 91kts
24-Dec-18 12:07 35.089241 -120.552102 283 3031ft 91kts
24-Dec-18 12:08 35.094246 -120.582159 283 3030ft 91kts
24-Dec-18 12:09 35.099424 -120.612395 292 3027ft 91kts
24-Dec-18 12:10 35.120367 -120.624608 344 3030ft 94kts
24-Dec-18 12:11 35.144399 -120.627629 7 3003ft 74kts
24-Dec-18 12:12 35.164271 -120.619964 12 2575ft 112kts
24-Dec-18 12:13 35.193066 -120.606327 27 1774ft 108kts
24-Dec-18 12:14 35.215595 -120.607953 319 922ft 75kts
24-Dec-18 12:15 35.227036 -120.623188 304 490ft 62kts
24-Dec-18 12:16 35.235527 -120.637893 304 216ft 39kts
24-Dec-18 12:17 35.238564 -120.640975 310 216ft 1kts

Navigation Log

Ident Type
Flight plan parsing failed, navigation log unavailable